createdAt,value
2023-03-04T03:04:17.778Z,20.69
2023-03-04T03:37:18.296Z,20.65
2023-03-04T03:47:17.716Z,20.68
2023-03-04T03:48:17.753Z,20.65
2023-03-04T03:49:17.780Z,20.64
2023-03-04T03:50:17.803Z,20.67
2023-03-04T03:51:17.818Z,20.64
2023-03-04T03:52:17.877Z,20.62
2023-03-04T03:53:17.857Z,20.62
2023-03-04T03:54:17.892Z,20.62
2023-03-04T03:55:18.803Z,20.64
2023-03-04T03:56:17.937Z,20.58
2023-03-04T03:57:17.960Z,20.64
2023-03-04T03:58:17.975Z,20.65
2023-03-04T03:59:17.978Z,20.61
2023-03-04T04:00:18.044Z,20.61
2023-03-04T04:01:18.016Z,20.62
2023-03-04T04:02:18.117Z,20.62
2023-03-04T04:03:18.056Z,20.61
2023-03-04T04:04:18.072Z,20.61
2023-03-04T04:05:18.095Z,20.62
2023-03-04T04:06:18.181Z,20.61
2023-03-04T04:07:18.128Z,20.62
2023-03-04T04:08:18.164Z,20.61
2023-03-04T04:09:18.163Z,20.61
2023-03-04T04:10:18.184Z,20.61
2023-03-04T04:11:18.196Z,20.62
2023-03-04T04:12:18.217Z,20.61
2023-03-04T04:13:18.239Z,20.61
2023-03-04T04:14:18.273Z,20.59
2023-03-04T04:15:18.332Z,20.61
2023-03-04T04:16:18.368Z,20.59
2023-03-04T04:17:18.331Z,20.61
2023-03-04T04:18:18.355Z,20.59
2023-03-04T04:19:18.375Z,20.58
2023-03-04T04:20:18.409Z,20.61
2023-03-04T04:21:18.424Z,20.59
2023-03-04T04:22:18.459Z,20.59
2023-03-04T04:23:18.536Z,20.61
2023-03-04T04:24:19.333Z,20.58
2023-03-04T04:25:18.534Z,20.59
2023-03-04T04:26:18.558Z,20.56
2023-03-04T04:27:18.579Z,20.59
2023-03-04T04:28:18.608Z,20.58
2023-03-04T04:29:18.634Z,20.58
2023-03-04T04:30:18.669Z,20.58
2023-03-04T04:31:18.686Z,20.59
2023-03-04T04:32:18.801Z,20.56
2023-03-04T04:33:18.749Z,20.56
2023-03-04T04:34:18.772Z,20.59
2023-03-04T04:35:18.885Z,20.58
2023-03-04T04:36:18.836Z,20.56
2023-03-04T04:37:18.845Z,20.56
2023-03-04T04:38:18.890Z,20.58
2023-03-04T04:39:18.909Z,20.56
2023-03-04T04:40:18.949Z,20.56
2023-03-04T04:41:18.968Z,20.58
2023-03-04T04:42:18.989Z,20.55
2023-03-04T04:43:19.026Z,20.58
2023-03-04T04:44:19.059Z,20.55
2023-03-04T04:45:19.086Z,20.58
2023-03-04T04:46:19.176Z,20.58
2023-03-04T04:47:19.144Z,20.56
2023-03-04T04:48:19.173Z,20.54
2023-03-04T04:49:19.223Z,20.55
2023-03-04T04:50:19.245Z,20.56
2023-03-04T04:51:19.260Z,20.59
2023-03-04T04:52:19.288Z,20.58
2023-03-04T04:53:19.322Z,20.55
2023-03-04T04:54:19.359Z,20.56
2023-03-04T04:55:19.372Z,20.58
2023-03-04T04:56:19.413Z,20.58
2023-03-04T04:57:19.445Z,20.56
2023-03-04T04:58:19.469Z,20.56
2023-03-04T04:59:19.507Z,20.55
2023-03-04T05:00:19.548Z,20.54
2023-03-04T05:01:19.655Z,20.54
2023-03-04T05:02:19.593Z,20.52
2023-03-04T05:03:22.025Z,20.54
2023-03-04T05:04:19.614Z,20.52
2023-03-04T05:05:19.623Z,20.55
2023-03-04T05:06:19.616Z,20.54
2023-03-04T05:07:19.598Z,20.54
2023-03-04T05:08:19.656Z,20.51
2023-03-04T05:09:19.586Z,20.55
2023-03-04T05:10:19.585Z,20.52
2023-03-04T05:11:19.586Z,20.54
2023-03-04T05:12:19.589Z,20.55
2023-03-04T05:31:19.582Z,20.49
2023-03-04T05:32:19.577Z,20.49
2023-03-04T05:33:19.536Z,20.51
2023-03-04T05:34:19.532Z,20.51
2023-03-04T05:35:19.560Z,20.51
2023-03-04T05:36:19.530Z,20.48
2023-03-04T05:37:19.532Z,20.49
2023-03-04T05:38:19.611Z,20.49
2023-03-04T05:39:19.521Z,20.49
2023-03-04T05:40:19.517Z,20.48
2023-03-04T05:41:19.507Z,20.48
2023-03-04T05:42:19.502Z,20.49
2023-03-04T05:43:19.587Z,20.47
2023-03-04T05:44:19.491Z,20.49
2023-03-04T05:45:19.491Z,20.47
2023-03-04T05:46:19.528Z,20.48
2023-03-04T05:47:19.495Z,20.47
2023-03-04T05:48:19.477Z,20.48
2023-03-04T05:49:19.484Z,20.48
2023-03-04T05:50:19.472Z,20.47
2023-03-04T05:51:19.467Z,20.47
2023-03-04T05:52:19.470Z,20.47
2023-03-04T05:53:19.461Z,20.45
2023-03-04T05:54:19.459Z,20.45
2023-03-04T05:55:19.459Z,20.48
2023-03-04T05:56:19.465Z,20.47
2023-03-04T05:57:19.471Z,20.47
2023-03-04T05:58:19.465Z,20.48
2023-03-04T05:59:19.453Z,20.47
2023-03-04T06:02:19.472Z,20.47
2023-03-04T06:03:19.458Z,20.47
2023-03-04T08:39:38.206Z,20.54
2023-03-04T08:41:38.212Z,20.55
2023-03-04T08:51:38.213Z,20.56
2023-03-04T09:14:37.730Z,20.58
2023-03-04T10:08:37.834Z,20.89
2023-03-04T10:14:37.745Z,20.96
2023-03-04T10:32:37.742Z,21.20
2023-03-04T10:33:37.759Z,21.22
2023-03-04T10:34:37.820Z,21.23
2023-03-04T10:35:37.912Z,21.26
2023-03-04T10:36:37.865Z,21.24
2023-03-04T10:37:37.900Z,21.27
2023-03-04T10:38:37.953Z,21.27
2023-03-04T10:39:37.962Z,21.29
2023-03-04T10:40:37.984Z,21.34
2023-03-04T10:41:38.162Z,21.31
2023-03-04T10:42:38.310Z,21.36
2023-03-04T10:43:38.034Z,21.36
2023-03-04T10:44:38.048Z,21.38
2023-03-04T10:45:38.133Z,21.41
2023-03-04T10:46:38.250Z,21.43
2023-03-04T10:47:38.096Z,21.43
2023-03-04T10:48:38.099Z,21.47
2023-03-04T10:49:38.120Z,21.47
2023-03-04T10:50:38.109Z,21.50
2023-03-04T10:51:38.111Z,21.50
2023-03-04T10:52:38.131Z,21.51
2023-03-04T10:53:38.112Z,21.54
2023-03-04T10:54:38.111Z,21.55
2023-03-04T10:55:38.128Z,21.60
2023-03-04T10:56:38.110Z,21.61
2023-03-04T10:57:38.097Z,21.62
2023-03-04T10:58:38.089Z,21.66
2023-03-04T10:59:38.082Z,21.69
2023-03-04T11:00:38.272Z,21.74
2023-03-04T11:01:38.047Z,21.81
2023-03-04T11:02:38.025Z,21.88
2023-03-04T11:03:38.066Z,21.93
2023-03-04T11:04:37.986Z,21.98
2023-03-04T11:05:37.961Z,22.06
2023-03-04T11:06:38.049Z,22.17
2023-03-04T11:07:53.579Z,22.23
2023-03-04T11:08:39.020Z,22.28
2023-03-04T11:09:37.881Z,22.36
2023-03-04T11:10:37.834Z,22.43
2023-03-04T11:11:37.800Z,22.49
2023-03-04T11:12:37.760Z,22.51
2023-03-04T11:13:37.731Z,22.54
2023-03-04T11:14:37.735Z,22.61
2023-03-04T11:21:40.054Z,22.86
2023-03-04T11:22:37.825Z,22.84
2023-03-04T11:23:37.835Z,22.90
2023-03-04T11:24:37.850Z,22.91
2023-03-04T11:25:37.870Z,22.95
2023-03-04T11:26:37.859Z,22.95
2023-03-04T11:27:37.862Z,22.97
2023-03-04T11:28:37.873Z,22.95
2023-03-04T11:29:37.881Z,22.95
2023-03-04T11:30:37.866Z,22.94
2023-03-04T11:31:37.916Z,22.91
2023-03-04T11:32:37.871Z,22.88
2023-03-04T11:33:37.867Z,22.88
2023-03-04T11:34:37.913Z,22.86
2023-03-04T11:35:37.910Z,22.86
2023-03-04T11:36:37.871Z,22.86
2023-03-04T11:37:37.868Z,22.87
2023-03-04T11:38:38.765Z,22.93
2023-03-04T11:39:37.869Z,22.90
2023-03-04T11:40:38.775Z,22.95
2023-03-04T11:41:37.868Z,22.97
2023-03-04T11:42:37.863Z,22.99
2023-03-04T11:43:37.869Z,23.02
2023-03-04T11:44:37.846Z,23.08
2023-03-04T11:46:37.839Z,23.11
2023-03-04T11:47:37.827Z,23.14
2023-03-04T11:48:37.787Z,23.16
2023-03-04T11:49:37.817Z,23.15
2023-03-04T11:50:37.760Z,23.16
2023-03-04T15:14:33.295Z,23.60
2023-03-04T15:15:33.272Z,23.59
2023-03-04T15:16:33.330Z,23.57
2023-03-04T15:17:33.302Z,23.55
2023-03-04T15:18:33.272Z,23.55
2023-03-04T15:19:33.237Z,23.56
2023-03-04T15:20:33.228Z,23.49
2023-03-04T15:21:33.224Z,23.49
2023-03-04T15:22:33.235Z,23.46
2023-03-04T15:23:33.221Z,23.45
2023-03-04T15:24:33.231Z,23.42
2023-03-04T15:25:33.287Z,23.39
2023-03-04T15:26:33.253Z,23.36
2023-03-04T15:27:33.252Z,23.35
2023-03-04T15:28:33.276Z,23.33
2023-03-04T15:29:33.286Z,23.32
2023-03-04T15:30:33.339Z,23.29
2023-03-04T15:31:33.342Z,23.28
2023-03-04T15:32:33.424Z,23.25
2023-03-04T15:33:33.875Z,23.25
2023-03-04T15:34:33.211Z,23.23
2023-03-04T15:35:33.262Z,23.21
2023-03-04T15:36:33.152Z,23.19
2023-03-04T15:37:33.131Z,23.18
2023-03-04T15:38:33.102Z,23.16
2023-03-04T15:39:33.046Z,23.16
2023-03-04T15:40:33.012Z,23.12
2023-03-04T15:41:32.964Z,23.11
2023-03-04T15:42:32.966Z,23.08
2023-03-04T15:43:32.889Z,23.08
2023-03-04T15:44:32.837Z,23.07
2023-03-04T15:45:32.802Z,23.04
2023-03-04T17:30:32.928Z,22.06
2023-03-04T17:31:32.950Z,22.05
2023-03-04T17:32:32.963Z,22.02
2023-03-04T17:33:32.896Z,22.02
2023-03-04T17:35:32.874Z,22.01
2023-03-04T17:36:32.841Z,22.01
2023-03-04T17:37:32.839Z,21.99
2023-03-04T17:38:32.820Z,21.99
2023-03-04T17:39:32.825Z,21.99
2023-03-04T17:40:32.853Z,21.98
2023-03-04T17:41:34.362Z,21.99
2023-03-04T17:42:32.773Z,22.01
2023-03-04T17:43:32.742Z,21.98
2023-03-04T17:44:32.715Z,21.99
2023-03-04T17:45:32.690Z,21.96
2023-03-04T17:46:32.672Z,21.98
2023-03-04T17:47:33.367Z,21.99
2023-03-04T17:48:32.624Z,21.96
2023-03-04T17:49:32.600Z,21.98
2023-03-04T17:50:32.563Z,21.98
2023-03-04T17:51:32.539Z,21.96
2023-03-04T18:33:31.827Z,21.77
2023-03-04T18:45:31.928Z,21.75
2023-03-04T18:46:31.893Z,21.72
2023-03-04T18:47:31.912Z,21.74
2023-03-04T18:48:31.916Z,21.71
2023-03-04T18:49:31.928Z,21.74
2023-03-04T18:50:31.933Z,21.71
2023-03-04T18:51:31.945Z,21.72
2023-03-04T18:52:31.958Z,21.72
2023-03-04T18:53:31.966Z,21.72
2023-03-04T18:55:31.988Z,21.68
2023-03-04T18:56:31.981Z,21.66
2023-03-04T18:57:31.998Z,21.69
2023-03-04T18:58:32.010Z,21.71
2023-03-04T18:59:32.020Z,21.68
2023-03-04T19:00:32.038Z,21.72
2023-03-04T19:01:32.043Z,21.71
2023-03-04T19:02:32.054Z,21.68
2023-03-04T19:03:32.178Z,21.68
2023-03-04T19:04:32.087Z,21.66
2023-03-04T19:05:32.102Z,21.68
2023-03-04T19:06:32.117Z,21.66
2023-03-04T19:07:32.133Z,21.66
2023-03-04T19:08:32.143Z,21.69
2023-03-04T19:09:32.170Z,21.68
2023-03-04T19:10:32.184Z,21.68
2023-03-04T19:11:32.194Z,21.66
2023-03-04T19:12:32.196Z,21.66
2023-03-04T19:13:32.977Z,21.68
2023-03-04T19:14:32.222Z,21.62
2023-03-04T19:15:32.248Z,21.64
2023-03-04T19:16:32.289Z,21.66
2023-03-04T19:17:32.338Z,21.69
2023-03-04T19:18:32.285Z,21.68
2023-03-04T19:19:32.308Z,21.68
2023-03-04T19:20:32.328Z,21.65
2023-03-04T19:21:32.420Z,21.66
2023-03-04T19:22:32.353Z,21.65
2023-03-04T19:23:32.379Z,21.64
2023-03-04T19:24:32.375Z,21.61
2023-03-04T19:25:32.398Z,21.61
2023-03-04T19:26:32.401Z,21.65
2023-03-04T19:27:32.421Z,21.64
2023-03-04T19:28:32.455Z,21.60
2023-03-04T19:29:32.474Z,21.64
2023-03-04T19:30:32.519Z,21.64
2023-03-04T19:31:32.501Z,21.64
2023-03-04T19:32:32.543Z,21.62
2023-03-04T19:33:32.544Z,21.60
2023-03-04T19:34:32.579Z,21.61
2023-03-04T19:35:32.653Z,21.64
2023-03-04T21:23:18.934Z,21.38
2023-03-04T21:24:18.932Z,21.41
2023-03-04T21:25:18.931Z,21.41
2023-03-04T21:26:18.946Z,21.41
2023-03-04T21:27:18.968Z,21.40
2023-03-04T21:28:18.965Z,21.40
2023-03-04T21:29:18.970Z,21.40
2023-03-04T21:30:18.995Z,21.43
2023-03-04T21:31:19.039Z,21.40
2023-03-04T21:32:24.584Z,21.38
2023-03-04T21:34:19.007Z,21.40
2023-03-04T21:35:19.077Z,21.40
2023-03-04T21:36:19.071Z,21.38
2023-03-04T21:37:19.033Z,21.38
2023-03-04T21:38:19.033Z,21.38
2023-03-04T21:39:19.047Z,21.37
2023-03-04T21:40:19.047Z,21.37
2023-03-04T21:41:19.053Z,21.37
2023-03-04T21:42:19.111Z,21.38
2023-03-04T21:43:19.075Z,21.37
2023-03-04T21:44:28.077Z,21.37
2023-03-04T21:46:19.132Z,21.34
2023-03-04T21:47:19.094Z,21.37
2023-03-04T21:48:19.133Z,21.38
2023-03-04T21:49:19.123Z,21.37
2023-03-04T21:50:19.130Z,21.37
2023-03-04T21:51:19.152Z,21.37
2023-03-04T21:52:19.154Z,21.37
2023-03-04T21:53:19.159Z,21.36
2023-03-04T21:54:19.153Z,21.34
2023-03-04T21:55:19.166Z,21.36
2023-03-04T21:56:19.181Z,21.37
2023-03-04T21:57:19.251Z,21.36
2023-03-04T21:58:19.289Z,21.37
2023-03-04T21:59:19.353Z,21.36
2023-03-04T22:00:19.417Z,21.38
2023-03-04T22:01:19.490Z,21.36
2023-03-04T22:02:19.559Z,21.38
2023-03-04T22:03:19.588Z,21.36
2023-03-04T22:04:19.637Z,21.36
2023-03-04T22:05:19.684Z,21.37
2023-03-04T22:06:19.813Z,21.33
2023-03-04T22:07:19.790Z,21.37
2023-03-04T22:08:19.843Z,21.34
2023-03-04T22:09:19.907Z,21.36
2023-03-04T22:10:20.050Z,21.33
2023-03-04T22:11:20.005Z,21.34
2023-03-04T22:12:20.059Z,21.33
2023-03-04T22:13:20.117Z,21.34
2023-03-04T22:14:20.182Z,21.31
2023-03-04T22:15:20.225Z,21.33
2023-03-04T22:16:20.311Z,21.33
2023-03-04T22:17:20.475Z,21.30
2023-03-04T22:18:20.405Z,21.33
2023-03-04T22:19:20.465Z,21.33
2023-03-04T22:20:20.538Z,21.31
2023-03-04T22:21:20.632Z,21.31
2023-03-04T22:22:20.653Z,21.33
2023-03-04T22:23:20.706Z,21.33
2023-03-04T22:24:20.818Z,21.34
2023-03-04T22:25:20.797Z,21.31
2023-03-04T22:26:20.935Z,21.34
2023-03-04T22:27:20.902Z,21.29
2023-03-04T22:28:20.959Z,21.31
2023-03-04T22:29:21.002Z,21.30
2023-03-04T22:30:21.067Z,21.30
2023-03-04T22:31:21.127Z,21.30
2023-03-04T22:32:21.255Z,21.30
2023-03-04T22:33:21.241Z,21.30
